sensor_id;sensor_type;location;lat;lon;timestamp;temperature;humidity
46364;DHT22;32071;49.036;9.344;2024-01-06T00:00:56;3.60;99.90
46364;DHT22;32071;49.036;9.344;2024-01-06T00:03:22;3.60;99.90
46364;DHT22;32071;49.036;9.344;2024-01-06T00:05:47;3.60;99.90
46364;DHT22;32071;49.036;9.344;2024-01-06T00:08:13;3.70;99.90
46364;DHT22;32071;49.036;9.344;2024-01-06T00:10:39;3.60;99.90
46364;DHT22;32071;49.036;9.344;2024-01-06T00:13:04;3.60;99.90
46364;DHT22;32071;49.036;9.344;2024-01-06T00:15:30;3.60;99.90
46364;DHT22;32071;49.036;9.344;2024-01-06T00:17:55;3.50;99.90
46364;DHT22;32071;49.036;9.344;2024-01-06T00:20:21;3.50;99.90
46364;DHT22;32071;49.036;9.344;2024-01-06T00:22:46;3.50;99.90
46364;DHT22;32071;49.036;9.344;2024-01-06T00:25:12;3.60;99.90
46364;DHT22;32071;49.036;9.344;2024-01-06T00:27:37;3.60;99.90
46364;DHT22;32071;49.036;9.344;2024-01-06T00:30:03;3.50;99.90
46364;DHT22;32071;49.036;9.344;2024-01-06T00:32:29;3.50;99.90
46364;DHT22;32071;49.036;9.344;2024-01-06T00:34:54;3.50;99.90
46364;DHT22;32071;49.036;9.344;2024-01-06T00:37:20;3.50;99.90
46364;DHT22;32071;49.036;9.344;2024-01-06T00:39:45;3.50;99.90
46364;DHT22;32071;49.036;9.344;2024-01-06T00:42:11;3.50;99.90
46364;DHT22;32071;49.036;9.344;2024-01-06T00:44:36;3.50;99.90
46364;DHT22;32071;49.036;9.344;2024-01-06T00:47:02;3.50;99.90
46364;DHT22;32071;49.036;9.344;2024-01-06T00:49:28;3.50;99.90
46364;DHT22;32071;49.036;9.344;2024-01-06T00:51:54;3.50;99.90
46364;DHT22;32071;49.036;9.344;2024-01-06T00:54:19;3.50;99.90
46364;DHT22;32071;49.036;9.344;2024-01-06T00:56:45;3.50;99.90
46364;DHT22;32071;49.036;9.344;2024-01-06T00:59:10;3.50;99.90
46364;DHT22;32071;49.036;9.344;2024-01-06T01:01:36;3.50;99.90
46364;DHT22;32071;49.036;9.344;2024-01-06T01:04:01;3.50;99.90
46364;DHT22;32071;49.036;9.344;2024-01-06T01:06:27;3.60;99.90
46364;DHT22;32071;49.036;9.344;2024-01-06T01:08:52;3.60;99.90
46364;DHT22;32071;49.036;9.344;2024-01-06T01:11:20;3.60;99.90
46364;DHT22;32071;49.036;9.344;2024-01-06T01:13:46;3.60;99.90
46364;DHT22;32071;49.036;9.344;2024-01-06T01:16:11;3.60;99.90
46364;DHT22;32071;49.036;9.344;2024-01-06T01:18:37;3.50;99.90
46364;DHT22;32071;49.036;9.344;2024-01-06T01:21:02;3.50;99.90
46364;DHT22;32071;49.036;9.344;2024-01-06T01:23:28;3.60;99.90
46364;DHT22;32071;49.036;9.344;2024-01-06T01:25:54;3.50;99.90
46364;DHT22;32071;49.036;9.344;2024-01-06T01:28:19;3.50;99.90
46364;DHT22;32071;49.036;9.344;2024-01-06T01:30:45;3.50;99.90
46364;DHT22;32071;49.036;9.344;2024-01-06T01:33:10;3.50;99.90
46364;DHT22;32071;49.036;9.344;2024-01-06T01:35:36;3.50;99.90
46364;DHT22;32071;49.036;9.344;2024-01-06T01:38:02;3.50;99.90
46364;DHT22;32071;49.036;9.344;2024-01-06T01:40:28;3.50;99.90
46364;DHT22;32071;49.036;9.344;2024-01-06T01:42:53;3.60;99.90
46364;DHT22;32071;49.036;9.344;2024-01-06T01:45:19;3.60;99.90
46364;DHT22;32071;49.036;9.344;2024-01-06T01:47:45;3.50;99.90
46364;DHT22;32071;49.036;9.344;2024-01-06T01:50:12;3.50;99.90
46364;DHT22;32071;49.036;9.344;2024-01-06T01:52:40;3.50;99.90
46364;DHT22;32071;49.036;9.344;2024-01-06T01:55:06;3.50;99.90
46364;DHT22;32071;49.036;9.344;2024-01-06T01:57:32;3.50;99.90
46364;DHT22;32071;49.036;9.344;2024-01-06T01:59:57;3.50;99.90
46364;DHT22;32071;49.036;9.344;2024-01-06T02:02:25;3.50;99.90
46364;DHT22;32071;49.036;9.344;2024-01-06T02:04:51;3.50;99.90
46364;DHT22;32071;49.036;9.344;2024-01-06T02:07:16;3.50;99.90
46364;DHT22;32071;49.036;9.344;2024-01-06T02:09:42;3.50;99.90
46364;DHT22;32071;49.036;9.344;2024-01-06T02:12:08;3.50;99.90
46364;DHT22;32071;49.036;9.344;2024-01-06T02:14:34;3.50;99.90
46364;DHT22;32071;49.036;9.344;2024-01-06T02:16:59;3.50;99.90
46364;DHT22;32071;49.036;9.344;2024-01-06T02:19:25;3.50;99.90
46364;DHT22;32071;49.036;9.344;2024-01-06T02:21:53;3.40;99.90
46364;DHT22;32071;49.036;9.344;2024-01-06T02:24:20;3.50;99.90
46364;DHT22;32071;49.036;9.344;2024-01-06T02:26:45;3.50;99.90
46364;DHT22;32071;49.036;9.344;2024-01-06T02:29:11;3.50;99.90
46364;DHT22;32071;49.036;9.344;2024-01-06T02:31:37;3.50;99.90
46364;DHT22;32071;49.036;9.344;2024-01-06T02:34:02;3.50;99.90
46364;DHT22;32071;49.036;9.344;2024-01-06T02:36:28;3.50;99.90
46364;DHT22;32071;49.036;9.344;2024-01-06T02:38:53;3.50;99.90
46364;DHT22;32071;49.036;9.344;2024-01-06T02:41:19;3.50;99.90
46364;DHT22;32071;49.036;9.344;2024-01-06T02:43:44;3.50;99.90
46364;DHT22;32071;49.036;9.344;2024-01-06T02:46:10;3.40;99.90
46364;DHT22;32071;49.036;9.344;2024-01-06T02:48:35;3.40;99.90
46364;DHT22;32071;49.036;9.344;2024-01-06T02:51:01;3.40;99.90
46364;DHT22;32071;49.036;9.344;2024-01-06T02:53:26;3.40;99.90
46364;DHT22;32071;49.036;9.344;2024-01-06T02:55:52;3.40;99.90
46364;DHT22;32071;49.036;9.344;2024-01-06T02:58:18;3.40;99.90
46364;DHT22;32071;49.036;9.344;2024-01-06T03:00:43;3.40;99.90
46364;DHT22;32071;49.036;9.344;2024-01-06T03:03:09;3.40;99.90
46364;DHT22;32071;49.036;9.344;2024-01-06T03:05:35;3.40;99.90
46364;DHT22;32071;49.036;9.344;2024-01-06T03:08:02;3.40;99.90
46364;DHT22;32071;49.036;9.344;2024-01-06T03:10:28;3.40;99.90
46364;DHT22;32071;49.036;9.344;2024-01-06T03:12:53;3.40;99.90
46364;DHT22;32071;49.036;9.344;2024-01-06T03:15:19;3.30;99.90
46364;DHT22;32071;49.036;9.344;2024-01-06T03:17:44;3.40;99.90
46364;DHT22;32071;49.036;9.344;2024-01-06T03:20:10;3.40;99.90
46364;DHT22;32071;49.036;9.344;2024-01-06T03:22:36;3.40;99.90
46364;DHT22;32071;49.036;9.344;2024-01-06T03:25:03;3.30;99.90
46364;DHT22;32071;49.036;9.344;2024-01-06T03:27:29;3.30;99.90
46364;DHT22;32071;49.036;9.344;2024-01-06T03:29:54;3.30;99.90
46364;DHT22;32071;49.036;9.344;2024-01-06T03:32:20;3.30;99.90
46364;DHT22;32071;49.036;9.344;2024-01-06T03:34:46;3.30;99.90
46364;DHT22;32071;49.036;9.344;2024-01-06T03:37:11;3.20;99.90
46364;DHT22;32071;49.036;9.344;2024-01-06T03:39:37;3.20;99.90
46364;DHT22;32071;49.036;9.344;2024-01-06T03:42:02;3.20;99.90
46364;DHT22;32071;49.036;9.344;2024-01-06T03:44:28;3.10;99.90
46364;DHT22;32071;49.036;9.344;2024-01-06T03:46:56;3.20;99.90
46364;DHT22;32071;49.036;9.344;2024-01-06T03:49:23;3.20;99.90
46364;DHT22;32071;49.036;9.344;2024-01-06T03:51:49;3.10;99.90
46364;DHT22;32071;49.036;9.344;2024-01-06T03:54:15;3.10;99.90
46364;DHT22;32071;49.036;9.344;2024-01-06T03:56:41;3.10;99.90
46364;DHT22;32071;49.036;9.344;2024-01-06T03:59:06;3.10;99.90
46364;DHT22;32071;49.036;9.344;2024-01-06T04:01:33;3.10;99.90
46364;DHT22;32071;49.036;9.344;2024-01-06T04:04:02;3.10;99.90
46364;DHT22;32071;49.036;9.344;2024-01-06T04:06:29;3.10;99.90
46364;DHT22;32071;49.036;9.344;2024-01-06T04:08:54;3.10;99.90
46364;DHT22;32071;49.036;9.344;2024-01-06T04:11:20;3.10;99.90
46364;DHT22;32071;49.036;9.344;2024-01-06T04:13:46;3.10;99.90
46364;DHT22;32071;49.036;9.344;2024-01-06T04:16:12;3.00;99.90
46364;DHT22;32071;49.036;9.344;2024-01-06T04:18:37;3.00;99.90
46364;DHT22;32071;49.036;9.344;2024-01-06T04:21:03;3.00;99.90
46364;DHT22;32071;49.036;9.344;2024-01-06T04:23:30;3.10;99.90
46364;DHT22;32071;49.036;9.344;2024-01-06T04:25:56;3.10;99.90
46364;DHT22;32071;49.036;9.344;2024-01-06T04:28:21;3.10;99.90
46364;DHT22;32071;49.036;9.344;2024-01-06T04:30:47;3.10;99.90
46364;DHT22;32071;49.036;9.344;2024-01-06T04:33:12;3.10;99.90
46364;DHT22;32071;49.036;9.344;2024-01-06T04:35:38;3.10;99.90
46364;DHT22;32071;49.036;9.344;2024-01-06T04:38:03;3.10;99.90
46364;DHT22;32071;49.036;9.344;2024-01-06T04:40:30;3.10;99.90
46364;DHT22;32071;49.036;9.344;2024-01-06T04:42:55;3.10;99.90
46364;DHT22;32071;49.036;9.344;2024-01-06T04:45:21;3.20;99.90
46364;DHT22;32071;49.036;9.344;2024-01-06T04:47:49;3.20;99.90
46364;DHT22;32071;49.036;9.344;2024-01-06T04:50:15;3.30;99.90
46364;DHT22;32071;49.036;9.344;2024-01-06T04:52:41;3.30;99.90
46364;DHT22;32071;49.036;9.344;2024-01-06T04:55:07;3.40;99.90
46364;DHT22;32071;49.036;9.344;2024-01-06T04:57:32;3.40;99.90
46364;DHT22;32071;49.036;9.344;2024-01-06T04:59:58;3.40;99.90
46364;DHT22;32071;49.036;9.344;2024-01-06T05:02:23;3.50;99.90
46364;DHT22;32071;49.036;9.344;2024-01-06T05:04:49;3.40;99.90
46364;DHT22;32071;49.036;9.344;2024-01-06T05:07:15;3.40;99.90
46364;DHT22;32071;49.036;9.344;2024-01-06T05:09:41;3.40;99.90
46364;DHT22;32071;49.036;9.344;2024-01-06T05:12:06;3.40;99.90
46364;DHT22;32071;49.036;9.344;2024-01-06T05:14:32;3.40;99.90
46364;DHT22;32071;49.036;9.344;2024-01-06T05:16:58;3.40;99.90
46364;DHT22;32071;49.036;9.344;2024-01-06T05:19:23;3.40;99.90
46364;DHT22;32071;49.036;9.344;2024-01-06T05:21:49;3.40;99.90
46364;DHT22;32071;49.036;9.344;2024-01-06T05:24:15;3.50;99.90
46364;DHT22;32071;49.036;9.344;2024-01-06T05:26:41;3.50;99.90
46364;DHT22;32071;49.036;9.344;2024-01-06T05:29:07;3.60;99.90
46364;DHT22;32071;49.036;9.344;2024-01-06T05:31:32;3.60;99.90
46364;DHT22;32071;49.036;9.344;2024-01-06T05:33:58;3.60;99.90
46364;DHT22;32071;49.036;9.344;2024-01-06T05:36:24;3.60;99.90
46364;DHT22;32071;49.036;9.344;2024-01-06T05:38:49;3.50;99.90
46364;DHT22;32071;49.036;9.344;2024-01-06T05:41:15;3.60;99.90
46364;DHT22;32071;49.036;9.344;2024-01-06T05:43:41;3.60;99.90
46364;DHT22;32071;49.036;9.344;2024-01-06T05:46:07;3.60;99.90
46364;DHT22;32071;49.036;9.344;2024-01-06T05:48:33;3.60;99.90
46364;DHT22;32071;49.036;9.344;2024-01-06T05:50:58;3.60;99.90
46364;DHT22;32071;49.036;9.344;2024-01-06T05:53:24;3.60;99.90
46364;DHT22;32071;49.036;9.344;2024-01-06T05:55:49;3.60;99.90
46364;DHT22;32071;49.036;9.344;2024-01-06T05:58:16;3.60;99.90
46364;DHT22;32071;49.036;9.344;2024-01-06T06:00:41;3.50;99.90
46364;DHT22;32071;49.036;9.344;2024-01-06T06:03:07;3.50;99.90
46364;DHT22;32071;49.036;9.344;2024-01-06T06:05:33;3.40;99.90
46364;DHT22;32071;49.036;9.344;2024-01-06T06:07:58;3.30;99.90
46364;DHT22;32071;49.036;9.344;2024-01-06T06:10:24;3.30;99.90
46364;DHT22;32071;49.036;9.344;2024-01-06T06:12:55;3.30;99.90
46364;DHT22;32071;49.036;9.344;2024-01-06T06:15:21;3.30;99.90
46364;DHT22;32071;49.036;9.344;2024-01-06T06:17:46;3.30;99.90
46364;DHT22;32071;49.036;9.344;2024-01-06T06:20:12;3.30;99.90
46364;DHT22;32071;49.036;9.344;2024-01-06T06:22:37;3.30;99.90
46364;DHT22;32071;49.036;9.344;2024-01-06T06:25:03;3.30;99.90
46364;DHT22;32071;49.036;9.344;2024-01-06T06:27:29;3.30;99.90
46364;DHT22;32071;49.036;9.344;2024-01-06T06:29:55;3.30;99.90
46364;DHT22;32071;49.036;9.344;2024-01-06T06:32:23;3.30;99.90
46364;DHT22;32071;49.036;9.344;2024-01-06T06:34:51;3.30;99.90
46364;DHT22;32071;49.036;9.344;2024-01-06T06:37:16;3.40;99.90
46364;DHT22;32071;49.036;9.344;2024-01-06T06:39:42;3.40;99.90
46364;DHT22;32071;49.036;9.344;2024-01-06T06:42:10;3.40;99.90
46364;DHT22;32071;49.036;9.344;2024-01-06T06:44:35;3.50;99.90
46364;DHT22;32071;49.036;9.344;2024-01-06T06:47:01;3.50;99.90
46364;DHT22;32071;49.036;9.344;2024-01-06T06:49:26;3.60;99.90
46364;DHT22;32071;49.036;9.344;2024-01-06T06:51:52;3.60;99.90
46364;DHT22;32071;49.036;9.344;2024-01-06T06:54:17;3.60;99.90
46364;DHT22;32071;49.036;9.344;2024-01-06T06:56:43;3.70;99.90
46364;DHT22;32071;49.036;9.344;2024-01-06T06:59:09;3.80;99.90
46364;DHT22;32071;49.036;9.344;2024-01-06T07:01:34;3.90;99.90
46364;DHT22;32071;49.036;9.344;2024-01-06T07:04:03;3.90;99.90
46364;DHT22;32071;49.036;9.344;2024-01-06T07:06:29;3.90;99.90
46364;DHT22;32071;49.036;9.344;2024-01-06T07:08:56;3.90;99.90
46364;DHT22;32071;49.036;9.344;2024-01-06T07:11:21;3.90;99.90
46364;DHT22;32071;49.036;9.344;2024-01-06T07:13:47;3.90;99.90
46364;DHT22;32071;49.036;9.344;2024-01-06T07:16:13;3.90;99.90
46364;DHT22;32071;49.036;9.344;2024-01-06T07:18:38;3.80;99.90
46364;DHT22;32071;49.036;9.344;2024-01-06T07:21:06;3.80;99.90
46364;DHT22;32071;49.036;9.344;2024-01-06T07:23:32;3.80;99.90
46364;DHT22;32071;49.036;9.344;2024-01-06T07:25:58;3.80;99.90
46364;DHT22;32071;49.036;9.344;2024-01-06T07:28:24;3.80;99.90
46364;DHT22;32071;49.036;9.344;2024-01-06T07:30:50;3.80;99.90
46364;DHT22;32071;49.036;9.344;2024-01-06T07:33:15;3.80;99.90
46364;DHT22;32071;49.036;9.344;2024-01-06T07:35:41;3.80;99.90
46364;DHT22;32071;49.036;9.344;2024-01-06T07:38:09;3.80;99.90
46364;DHT22;32071;49.036;9.344;2024-01-06T07:40:36;3.80;99.90
46364;DHT22;32071;49.036;9.344;2024-01-06T07:43:01;3.80;99.90
46364;DHT22;32071;49.036;9.344;2024-01-06T07:45:27;3.80;99.90
46364;DHT22;32071;49.036;9.344;2024-01-06T07:47:53;3.80;99.90
46364;DHT22;32071;49.036;9.344;2024-01-06T07:50:18;3.80;99.90
46364;DHT22;32071;49.036;9.344;2024-01-06T07:52:44;3.80;99.90
46364;DHT22;32071;49.036;9.344;2024-01-06T07:55:09;3.90;99.90
46364;DHT22;32071;49.036;9.344;2024-01-06T07:57:35;4.00;99.90
46364;DHT22;32071;49.036;9.344;2024-01-06T08:00:01;4.00;99.90
46364;DHT22;32071;49.036;9.344;2024-01-06T08:02:26;4.00;99.90
46364;DHT22;32071;49.036;9.344;2024-01-06T08:04:52;4.00;99.90
46364;DHT22;32071;49.036;9.344;2024-01-06T08:07:19;4.10;99.90
46364;DHT22;32071;49.036;9.344;2024-01-06T08:09:44;4.10;99.90
46364;DHT22;32071;49.036;9.344;2024-01-06T08:12:10;4.20;99.90
46364;DHT22;32071;49.036;9.344;2024-01-06T08:14:35;4.20;99.90
46364;DHT22;32071;49.036;9.344;2024-01-06T08:17:01;4.20;99.90
46364;DHT22;32071;49.036;9.344;2024-01-06T08:19:27;4.30;99.90
46364;DHT22;32071;49.036;9.344;2024-01-06T08:21:55;4.30;99.90
46364;DHT22;32071;49.036;9.344;2024-01-06T08:24:20;4.30;99.90
46364;DHT22;32071;49.036;9.344;2024-01-06T08:26:46;4.30;99.90
46364;DHT22;32071;49.036;9.344;2024-01-06T08:29:12;4.30;99.90
46364;DHT22;32071;49.036;9.344;2024-01-06T08:31:44;4.30;99.90
46364;DHT22;32071;49.036;9.344;2024-01-06T08:34:46;4.30;99.90
46364;DHT22;32071;49.036;9.344;2024-01-06T08:37:11;4.30;99.90
46364;DHT22;32071;49.036;9.344;2024-01-06T08:39:37;4.40;99.90
46364;DHT22;32071;49.036;9.344;2024-01-06T08:42:04;4.40;99.90
46364;DHT22;32071;49.036;9.344;2024-01-06T08:44:48;4.40;99.90
46364;DHT22;32071;49.036;9.344;2024-01-06T08:47:14;4.40;99.90
46364;DHT22;32071;49.036;9.344;2024-01-06T08:49:39;4.40;99.90
46364;DHT22;32071;49.036;9.344;2024-01-06T08:52:05;4.40;99.90
46364;DHT22;32071;49.036;9.344;2024-01-06T08:54:31;4.50;99.90
46364;DHT22;32071;49.036;9.344;2024-01-06T08:56:57;4.50;99.90
46364;DHT22;32071;49.036;9.344;2024-01-06T08:59:23;4.60;99.90
46364;DHT22;32071;49.036;9.344;2024-01-06T09:01:48;4.60;99.90
46364;DHT22;32071;49.036;9.344;2024-01-06T09:04:14;4.70;99.90
46364;DHT22;32071;49.036;9.344;2024-01-06T09:06:40;4.70;99.90
46364;DHT22;32071;49.036;9.344;2024-01-06T09:09:07;4.80;99.90
46364;DHT22;32071;49.036;9.344;2024-01-06T09:11:33;4.80;99.90
46364;DHT22;32071;49.036;9.344;2024-01-06T09:13:59;4.90;99.90
46364;DHT22;32071;49.036;9.344;2024-01-06T09:16:26;4.90;99.90
46364;DHT22;32071;49.036;9.344;2024-01-06T09:18:51;5.00;99.90
46364;DHT22;32071;49.036;9.344;2024-01-06T09:21:17;5.00;99.90
46364;DHT22;32071;49.036;9.344;2024-01-06T09:23:43;5.10;99.90
46364;DHT22;32071;49.036;9.344;2024-01-06T09:26:08;5.10;99.90
46364;DHT22;32071;49.036;9.344;2024-01-06T09:28:34;5.20;99.90
46364;DHT22;32071;49.036;9.344;2024-01-06T09:31:00;5.20;99.90
46364;DHT22;32071;49.036;9.344;2024-01-06T09:33:25;5.20;99.90
46364;DHT22;32071;49.036;9.344;2024-01-06T09:35:51;5.30;99.90
46364;DHT22;32071;49.036;9.344;2024-01-06T09:38:16;5.30;99.90
46364;DHT22;32071;49.036;9.344;2024-01-06T09:40:44;5.30;99.90
46364;DHT22;32071;49.036;9.344;2024-01-06T09:43:10;5.40;99.90
46364;DHT22;32071;49.036;9.344;2024-01-06T09:45:37;5.40;99.90
46364;DHT22;32071;49.036;9.344;2024-01-06T09:48:10;5.50;99.90
46364;DHT22;32071;49.036;9.344;2024-01-06T09:50:39;5.50;99.90
46364;DHT22;32071;49.036;9.344;2024-01-06T09:53:07;5.50;99.90
46364;DHT22;32071;49.036;9.344;2024-01-06T09:55:34;5.50;99.90
46364;DHT22;32071;49.036;9.344;2024-01-06T09:58:01;5.50;99.90
46364;DHT22;32071;49.036;9.344;2024-01-06T10:00:27;5.60;99.90
46364;DHT22;32071;49.036;9.344;2024-01-06T10:02:52;5.50;99.90
46364;DHT22;32071;49.036;9.344;2024-01-06T10:05:18;5.50;99.90
46364;DHT22;32071;49.036;9.344;2024-01-06T10:07:47;5.50;99.90
46364;DHT22;32071;49.036;9.344;2024-01-06T10:10:14;5.50;99.90
46364;DHT22;32071;49.036;9.344;2024-01-06T10:12:41;5.60;99.90
46364;DHT22;32071;49.036;9.344;2024-01-06T10:15:11;5.60;99.90
46364;DHT22;32071;49.036;9.344;2024-01-06T10:17:41;5.60;99.90
46364;DHT22;32071;49.036;9.344;2024-01-06T10:20:11;5.60;99.90
46364;DHT22;32071;49.036;9.344;2024-01-06T10:22:38;5.60;99.90
46364;DHT22;32071;49.036;9.344;2024-01-06T10:25:10;5.60;99.90
46364;DHT22;32071;49.036;9.344;2024-01-06T10:27:40;5.60;99.90
46364;DHT22;32071;49.036;9.344;2024-01-06T10:30:06;5.60;99.90
46364;DHT22;32071;49.036;9.344;2024-01-06T10:32:33;5.60;99.90
46364;DHT22;32071;49.036;9.344;2024-01-06T10:34:59;5.50;99.90
46364;DHT22;32071;49.036;9.344;2024-01-06T10:37:27;5.60;99.90
46364;DHT22;32071;49.036;9.344;2024-01-06T10:40:13;5.60;99.90
46364;DHT22;32071;49.036;9.344;2024-01-06T10:42:40;5.70;99.90
46364;DHT22;32071;49.036;9.344;2024-01-06T10:45:08;5.70;99.90
46364;DHT22;32071;49.036;9.344;2024-01-06T10:47:37;5.80;99.90
46364;DHT22;32071;49.036;9.344;2024-01-06T10:50:04;5.70;99.90
46364;DHT22;32071;49.036;9.344;2024-01-06T10:52:30;5.80;99.90
46364;DHT22;32071;49.036;9.344;2024-01-06T10:54:57;5.80;99.90
46364;DHT22;32071;49.036;9.344;2024-01-06T10:57:23;5.80;99.90
46364;DHT22;32071;49.036;9.344;2024-01-06T10:59:51;5.80;99.90
46364;DHT22;32071;49.036;9.344;2024-01-06T11:02:17;5.80;99.90
46364;DHT22;32071;49.036;9.344;2024-01-06T11:04:47;5.80;99.90
46364;DHT22;32071;49.036;9.344;2024-01-06T11:07:15;5.80;99.90
46364;DHT22;32071;49.036;9.344;2024-01-06T11:09:49;5.80;99.90
46364;DHT22;32071;49.036;9.344;2024-01-06T11:12:16;5.90;99.90
46364;DHT22;32071;49.036;9.344;2024-01-06T11:14:42;6.00;99.90
46364;DHT22;32071;49.036;9.344;2024-01-06T11:17:07;6.00;99.90
46364;DHT22;32071;49.036;9.344;2024-01-06T11:25:06;6.00;99.90
46364;DHT22;32071;49.036;9.344;2024-01-06T11:27:33;5.90;99.90
46364;DHT22;32071;49.036;9.344;2024-01-06T11:30:02;5.90;99.90
46364;DHT22;32071;49.036;9.344;2024-01-06T11:32:39;6.00;99.90
46364;DHT22;32071;49.036;9.344;2024-01-06T11:35:14;6.00;99.90
46364;DHT22;32071;49.036;9.344;2024-01-06T11:42:47;6.00;99.90
46364;DHT22;32071;49.036;9.344;2024-01-06T11:45:14;6.00;99.90
46364;DHT22;32071;49.036;9.344;2024-01-06T11:47:40;6.00;99.90
46364;DHT22;32071;49.036;9.344;2024-01-06T11:50:12;6.00;99.90
46364;DHT22;32071;49.036;9.344;2024-01-06T11:52:38;6.10;99.90
46364;DHT22;32071;49.036;9.344;2024-01-06T11:55:04;6.10;99.90
46364;DHT22;32071;49.036;9.344;2024-01-06T11:57:30;6.20;99.90
46364;DHT22;32071;49.036;9.344;2024-01-06T11:59:56;6.30;99.90
46364;DHT22;32071;49.036;9.344;2024-01-06T12:02:21;6.20;99.90
46364;DHT22;32071;49.036;9.344;2024-01-06T12:04:52;6.30;99.90
46364;DHT22;32071;49.036;9.344;2024-01-06T12:07:19;6.30;99.90
46364;DHT22;32071;49.036;9.344;2024-01-06T12:09:46;6.30;99.90
46364;DHT22;32071;49.036;9.344;2024-01-06T12:12:15;6.40;99.90
46364;DHT22;32071;49.036;9.344;2024-01-06T12:14:41;6.30;99.90
46364;DHT22;32071;49.036;9.344;2024-01-06T12:17:11;6.30;99.90
46364;DHT22;32071;49.036;9.344;2024-01-06T12:19:39;6.30;99.90
46364;DHT22;32071;49.036;9.344;2024-01-06T12:22:07;6.20;99.90
46364;DHT22;32071;49.036;9.344;2024-01-06T12:24:33;6.20;99.90
46364;DHT22;32071;49.036;9.344;2024-01-06T12:26:58;6.20;99.90
46364;DHT22;32071;49.036;9.344;2024-01-06T12:29:28;6.20;99.90
46364;DHT22;32071;49.036;9.344;2024-01-06T12:31:55;6.10;99.90
46364;DHT22;32071;49.036;9.344;2024-01-06T12:34:21;6.00;99.90
46364;DHT22;32071;49.036;9.344;2024-01-06T12:36:47;6.00;99.90
46364;DHT22;32071;49.036;9.344;2024-01-06T12:39:13;6.00;99.90
46364;DHT22;32071;49.036;9.344;2024-01-06T12:41:40;6.00;99.90
46364;DHT22;32071;49.036;9.344;2024-01-06T12:44:06;6.00;99.90
46364;DHT22;32071;49.036;9.344;2024-01-06T12:46:32;6.00;99.90
46364;DHT22;32071;49.036;9.344;2024-01-06T12:48:58;6.00;99.90
46364;DHT22;32071;49.036;9.344;2024-01-06T12:51:24;6.00;99.90
46364;DHT22;32071;49.036;9.344;2024-01-06T12:53:49;6.00;99.90
46364;DHT22;32071;49.036;9.344;2024-01-06T12:56:15;6.00;99.90
46364;DHT22;32071;49.036;9.344;2024-01-06T12:58:41;6.10;99.90
46364;DHT22;32071;49.036;9.344;2024-01-06T13:01:07;6.10;99.90
46364;DHT22;32071;49.036;9.344;2024-01-06T13:03:32;6.10;99.90
46364;DHT22;32071;49.036;9.344;2024-01-06T13:05:59;6.20;99.90
46364;DHT22;32071;49.036;9.344;2024-01-06T13:08:25;6.10;99.90
46364;DHT22;32071;49.036;9.344;2024-01-06T13:10:51;6.10;99.90
46364;DHT22;32071;49.036;9.344;2024-01-06T13:13:17;6.20;99.90
46364;DHT22;32071;49.036;9.344;2024-01-06T13:15:43;6.20;99.90
46364;DHT22;32071;49.036;9.344;2024-01-06T13:18:08;6.10;99.90
46364;DHT22;32071;49.036;9.344;2024-01-06T13:20:34;6.10;99.90
46364;DHT22;32071;49.036;9.344;2024-01-06T13:22:59;6.10;99.90
46364;DHT22;32071;49.036;9.344;2024-01-06T13:25:25;6.10;99.90
46364;DHT22;32071;49.036;9.344;2024-01-06T13:27:50;6.10;99.90
46364;DHT22;32071;49.036;9.344;2024-01-06T13:30:17;6.00;99.90
46364;DHT22;32071;49.036;9.344;2024-01-06T13:32:42;6.00;99.90
46364;DHT22;32071;49.036;9.344;2024-01-06T13:35:08;6.00;99.90
46364;DHT22;32071;49.036;9.344;2024-01-06T13:37:36;6.00;99.90
46364;DHT22;32071;49.036;9.344;2024-01-06T13:40:02;6.00;99.90
46364;DHT22;32071;49.036;9.344;2024-01-06T13:42:28;6.00;99.90
46364;DHT22;32071;49.036;9.344;2024-01-06T13:44:54;6.00;99.90
46364;DHT22;32071;49.036;9.344;2024-01-06T13:47:19;6.00;99.90
46364;DHT22;32071;49.036;9.344;2024-01-06T13:49:45;6.00;99.90
46364;DHT22;32071;49.036;9.344;2024-01-06T13:52:10;6.00;99.90
46364;DHT22;32071;49.036;9.344;2024-01-06T13:54:36;6.00;99.90
46364;DHT22;32071;49.036;9.344;2024-01-06T13:57:02;6.00;99.90
46364;DHT22;32071;49.036;9.344;2024-01-06T13:59:28;6.00;99.90
46364;DHT22;32071;49.036;9.344;2024-01-06T14:01:54;6.00;99.90
46364;DHT22;32071;49.036;9.344;2024-01-06T14:04:19;6.00;99.90
46364;DHT22;32071;49.036;9.344;2024-01-06T14:06:45;6.00;99.90
46364;DHT22;32071;49.036;9.344;2024-01-06T14:09:13;6.00;99.90
46364;DHT22;32071;49.036;9.344;2024-01-06T14:11:39;6.10;99.90
46364;DHT22;32071;49.036;9.344;2024-01-06T14:14:04;6.10;99.90
46364;DHT22;32071;49.036;9.344;2024-01-06T14:16:30;6.20;99.90
46364;DHT22;32071;49.036;9.344;2024-01-06T14:18:56;6.20;99.90
46364;DHT22;32071;49.036;9.344;2024-01-06T14:21:22;6.20;99.90
46364;DHT22;32071;49.036;9.344;2024-01-06T14:23:48;6.20;99.90
46364;DHT22;32071;49.036;9.344;2024-01-06T14:26:17;6.20;99.90
46364;DHT22;32071;49.036;9.344;2024-01-06T14:28:46;6.20;99.90
46364;DHT22;32071;49.036;9.344;2024-01-06T14:31:11;6.30;99.90
46364;DHT22;32071;49.036;9.344;2024-01-06T14:33:37;6.30;99.90
46364;DHT22;32071;49.036;9.344;2024-01-06T14:36:03;6.30;99.90
46364;DHT22;32071;49.036;9.344;2024-01-06T14:38:28;6.20;99.90
46364;DHT22;32071;49.036;9.344;2024-01-06T14:40:54;6.20;99.90
46364;DHT22;32071;49.036;9.344;2024-01-06T14:43:19;6.10;99.90
46364;DHT22;32071;49.036;9.344;2024-01-06T14:45:46;6.10;99.90
46364;DHT22;32071;49.036;9.344;2024-01-06T14:48:12;6.00;99.90
46364;DHT22;32071;49.036;9.344;2024-01-06T14:50:37;6.00;99.90
46364;DHT22;32071;49.036;9.344;2024-01-06T14:53:03;6.00;99.90
46364;DHT22;32071;49.036;9.344;2024-01-06T14:55:29;6.00;99.90
46364;DHT22;32071;49.036;9.344;2024-01-06T14:57:54;5.90;99.90
46364;DHT22;32071;49.036;9.344;2024-01-06T15:00:20;5.90;99.90
46364;DHT22;32071;49.036;9.344;2024-01-06T15:02:45;6.00;99.90
46364;DHT22;32071;49.036;9.344;2024-01-06T15:05:12;6.00;99.90
46364;DHT22;32071;49.036;9.344;2024-01-06T15:07:38;6.00;99.90
46364;DHT22;32071;49.036;9.344;2024-01-06T15:10:04;6.00;99.90
46364;DHT22;32071;49.036;9.344;2024-01-06T15:12:30;6.00;99.90
46364;DHT22;32071;49.036;9.344;2024-01-06T15:14:56;6.00;99.90
46364;DHT22;32071;49.036;9.344;2024-01-06T15:17:24;6.00;99.90
46364;DHT22;32071;49.036;9.344;2024-01-06T15:19:49;6.00;99.90
46364;DHT22;32071;49.036;9.344;2024-01-06T15:22:16;6.00;99.90
46364;DHT22;32071;49.036;9.344;2024-01-06T15:24:42;6.00;99.90
46364;DHT22;32071;49.036;9.344;2024-01-06T15:27:15;6.00;99.90
46364;DHT22;32071;49.036;9.344;2024-01-06T15:29:41;6.00;99.90
46364;DHT22;32071;49.036;9.344;2024-01-06T15:32:06;5.90;99.90
46364;DHT22;32071;49.036;9.344;2024-01-06T15:34:33;5.90;99.90
46364;DHT22;32071;49.036;9.344;2024-01-06T15:36:59;5.90;99.90
46364;DHT22;32071;49.036;9.344;2024-01-06T15:39:25;5.90;99.90
46364;DHT22;32071;49.036;9.344;2024-01-06T15:41:50;5.90;99.90
46364;DHT22;32071;49.036;9.344;2024-01-06T15:44:18;5.90;99.90
46364;DHT22;32071;49.036;9.344;2024-01-06T15:46:43;5.90;99.90
46364;DHT22;32071;49.036;9.344;2024-01-06T15:49:09;5.90;99.90